sensor_id;sensor_type;location;lat;lon;timestamp;pressure;altitude;pressure_sealevel;temperature;humidity
71791;BME280;59638;52.126;5.434;2022-10-26T00:03:30;101617.00;;;8.96;100.00
71791;BME280;59638;52.126;5.434;2022-10-26T00:06:08;101614.78;;;9.03;100.00
71791;BME280;59638;52.126;5.434;2022-10-26T00:08:35;101610.97;;;9.07;100.00
71791;BME280;59638;52.126;5.434;2022-10-26T00:11:02;101615.06;;;9.11;100.00
71791;BME280;59638;52.126;5.434;2022-10-26T00:13:29;101606.72;;;9.17;100.00
71791;BME280;59638;52.126;5.434;2022-10-26T00:15:55;101597.16;;;9.16;100.00
71791;BME280;59638;52.126;5.434;2022-10-26T00:18:22;101607.81;;;9.14;100.00
71791;BME280;59638;52.126;5.434;2022-10-26T00:20:49;101598.81;;;9.17;100.00
71791;BME280;59638;52.126;5.434;2022-10-26T00:23:15;101601.56;;;9.15;100.00
71791;BME280;59638;52.126;5.434;2022-10-26T00:25:43;101587.84;;;9.23;100.00
71791;BME280;59638;52.126;5.434;2022-10-26T00:28:09;101590.16;;;9.27;100.00
71791;BME280;59638;52.126;5.434;2022-10-26T00:30:38;101588.16;;;9.31;100.00
71791;BME280;59638;52.126;5.434;2022-10-26T00:33:05;101593.91;;;9.36;100.00
71791;BME280;59638;52.126;5.434;2022-10-26T00:35:31;101589.28;;;9.40;100.00
71791;BME280;59638;52.126;5.434;2022-10-26T00:38:11;101592.63;;;9.42;100.00
71791;BME280;59638;52.126;5.434;2022-10-26T00:40:37;101588.72;;;9.47;100.00
71791;BME280;59638;52.126;5.434;2022-10-26T00:43:09;101583.81;;;9.54;100.00
71791;BME280;59638;52.126;5.434;2022-10-26T00:45:38;101578.69;;;9.52;100.00
71791;BME280;59638;52.126;5.434;2022-10-26T00:48:09;101578.81;;;9.51;100.00
71791;BME280;59638;52.126;5.434;2022-10-26T00:50:41;101585.00;;;9.50;100.00
71791;BME280;59638;52.126;5.434;2022-10-26T00:53:09;101583.69;;;9.44;100.00
71791;BME280;59638;52.126;5.434;2022-10-26T00:55:41;101575.97;;;9.41;100.00
71791;BME280;59638;52.126;5.434;2022-10-26T00:58:10;101577.34;;;9.47;100.00
71791;BME280;59638;52.126;5.434;2022-10-26T01:00:38;101577.47;;;9.57;100.00
71791;BME280;59638;52.126;5.434;2022-10-26T01:03:07;101567.22;;;9.65;100.00
71791;BME280;59638;52.126;5.434;2022-10-26T01:05:37;101560.03;;;9.67;100.00
71791;BME280;59638;52.126;5.434;2022-10-26T01:08:06;101557.91;;;9.72;100.00
71791;BME280;59638;52.126;5.434;2022-10-26T01:10:35;101556.94;;;9.73;100.00
71791;BME280;59638;52.126;5.434;2022-10-26T01:13:03;101552.41;;;9.75;100.00
71791;BME280;59638;52.126;5.434;2022-10-26T01:15:41;101554.69;;;9.79;100.00
71791;BME280;59638;52.126;5.434;2022-10-26T01:18:18;101551.09;;;9.80;100.00
71791;BME280;59638;52.126;5.434;2022-10-26T01:24:15;101534.66;;;9.77;100.00
71791;BME280;59638;52.126;5.434;2022-10-26T01:32:46;101532.63;;;9.80;100.00
71791;BME280;59638;52.126;5.434;2022-10-26T01:35:21;101536.38;;;9.78;100.00
71791;BME280;59638;52.126;5.434;2022-10-26T01:37:57;101528.44;;;9.78;100.00
71791;BME280;59638;52.126;5.434;2022-10-26T01:40:33;101529.16;;;9.80;100.00
71791;BME280;59638;52.126;5.434;2022-10-26T01:43:04;101518.63;;;9.80;100.00
71791;BME280;59638;52.126;5.434;2022-10-26T01:45:33;101517.66;;;9.81;100.00
71791;BME280;59638;52.126;5.434;2022-10-26T01:48:01;101521.13;;;9.81;100.00
71791;BME280;59638;52.126;5.434;2022-10-26T01:50:29;101511.44;;;9.82;100.00
71791;BME280;59638;52.126;5.434;2022-10-26T01:52:57;101506.16;;;9.82;100.00
71791;BME280;59638;52.126;5.434;2022-10-26T01:55:49;101506.16;;;9.82;100.00
71791;BME280;59638;52.126;5.434;2022-10-26T02:06:57;101501.72;;;9.82;100.00
71791;BME280;59638;52.126;5.434;2022-10-26T02:12:02;101512.88;;;9.86;100.00
71791;BME280;59638;52.126;5.434;2022-10-26T02:17:13;101512.63;;;9.89;100.00
71791;BME280;59638;52.126;5.434;2022-10-26T02:19:51;101506.06;;;9.95;100.00
71791;BME280;59638;52.126;5.434;2022-10-26T02:22:23;101506.69;;;9.98;100.00
71791;BME280;59638;52.126;5.434;2022-10-26T02:24:52;101502.59;;;10.05;100.00
71791;BME280;59638;52.126;5.434;2022-10-26T02:27:23;101502.34;;;10.08;100.00
71791;BME280;59638;52.126;5.434;2022-10-26T02:29:53;101505.63;;;10.12;100.00
71791;BME280;59638;52.126;5.434;2022-10-26T02:32:22;101501.06;;;10.14;100.00
71791;BME280;59638;52.126;5.434;2022-10-26T02:34:55;101500.56;;;10.20;100.00
71791;BME280;59638;52.126;5.434;2022-10-26T02:37:25;101491.59;;;10.23;100.00
71791;BME280;59638;52.126;5.434;2022-10-26T02:39:54;101491.50;;;10.24;100.00
71791;BME280;59638;52.126;5.434;2022-10-26T02:42:21;101483.22;;;10.29;100.00
71791;BME280;59638;52.126;5.434;2022-10-26T02:44:53;101476.03;;;10.31;100.00
71791;BME280;59638;52.126;5.434;2022-10-26T02:47:23;101473.41;;;10.31;100.00
71791;BME280;59638;52.126;5.434;2022-10-26T02:49:52;101467.16;;;10.32;100.00
71791;BME280;59638;52.126;5.434;2022-10-26T02:52:26;101473.84;;;10.36;100.00
71791;BME280;59638;52.126;5.434;2022-10-26T02:55:03;101478.91;;;10.39;100.00
71791;BME280;59638;52.126;5.434;2022-10-26T02:57:38;101468.09;;;10.42;100.00
71791;BME280;59638;52.126;5.434;2022-10-26T03:00:07;101465.94;;;10.47;100.00
71791;BME280;59638;52.126;5.434;2022-10-26T03:02:42;101467.50;;;10.50;100.00
71791;BME280;59638;52.126;5.434;2022-10-26T03:05:17;101469.63;;;10.56;100.00
71791;BME280;59638;52.126;5.434;2022-10-26T03:07:45;101471.09;;;10.60;100.00
71791;BME280;59638;52.126;5.434;2022-10-26T03:10:11;101461.84;;;10.66;100.00
71791;BME280;59638;52.126;5.434;2022-10-26T03:12:38;101471.19;;;10.70;100.00
71791;BME280;59638;52.126;5.434;2022-10-26T03:15:04;101464.81;;;10.72;100.00
71791;BME280;59638;52.126;5.434;2022-10-26T03:17:31;101467.09;;;10.77;100.00
71791;BME280;59638;52.126;5.434;2022-10-26T03:19:57;101465.16;;;10.79;100.00
71791;BME280;59638;52.126;5.434;2022-10-26T03:22:23;101464.06;;;10.81;100.00
71791;BME280;59638;52.126;5.434;2022-10-26T03:24:50;101460.34;;;10.84;100.00
71791;BME280;59638;52.126;5.434;2022-10-26T03:27:16;101457.72;;;10.84;100.00
71791;BME280;59638;52.126;5.434;2022-10-26T03:29:43;101456.75;;;10.85;100.00
71791;BME280;59638;52.126;5.434;2022-10-26T03:32:09;101457.47;;;10.87;100.00
71791;BME280;59638;52.126;5.434;2022-10-26T03:34:35;101456.03;;;10.83;100.00
71791;BME280;59638;52.126;5.434;2022-10-26T03:37:02;101457.31;;;10.88;100.00
71791;BME280;59638;52.126;5.434;2022-10-26T03:39:28;101455.53;;;10.89;100.00
71791;BME280;59638;52.126;5.434;2022-10-26T03:41:54;101456.50;;;10.88;100.00
71791;BME280;59638;52.126;5.434;2022-10-26T03:44:21;101456.03;;;10.83;100.00
71791;BME280;59638;52.126;5.434;2022-10-26T03:46:47;101464.47;;;10.77;100.00
71791;BME280;59638;52.126;5.434;2022-10-26T03:49:14;101449.81;;;10.73;100.00
71791;BME280;59638;52.126;5.434;2022-10-26T03:51:40;101453.66;;;10.69;100.00
71791;BME280;59638;52.126;5.434;2022-10-26T03:54:07;101449.13;;;10.59;100.00
71791;BME280;59638;52.126;5.434;2022-10-26T03:56:33;101452.97;;;10.55;100.00
71791;BME280;59638;52.126;5.434;2022-10-26T03:58:59;101447.72;;;10.44;100.00
71791;BME280;59638;52.126;5.434;2022-10-26T04:01:26;101450.84;;;10.38;100.00
71791;BME280;59638;52.126;5.434;2022-10-26T04:03:52;101447.72;;;10.33;100.00
71791;BME280;59638;52.126;5.434;2022-10-26T04:06:18;101448.47;;;10.24;100.00
71791;BME280;59638;52.126;5.434;2022-10-26T04:08:45;101441.91;;;10.17;100.00
71791;BME280;59638;52.126;5.434;2022-10-26T04:11:11;101445.78;;;10.13;100.00
71791;BME280;59638;52.126;5.434;2022-10-26T04:13:37;101441.94;;;10.05;100.00
71791;BME280;59638;52.126;5.434;2022-10-26T04:16:04;101450.47;;;9.98;100.00
71791;BME280;59638;52.126;5.434;2022-10-26T04:18:30;101447.19;;;9.94;100.00
71791;BME280;59638;52.126;5.434;2022-10-26T04:21:00;101450.31;;;9.88;100.00
71791;BME280;59638;52.126;5.434;2022-10-26T04:23:27;101455.94;;;9.84;100.00
71791;BME280;59638;52.126;5.434;2022-10-26T04:25:53;101444.78;;;9.80;100.00
71791;BME280;59638;52.126;5.434;2022-10-26T04:28:19;101445.50;;;9.82;100.00
71791;BME280;59638;52.126;5.434;2022-10-26T04:30:46;101446.00;;;9.87;100.00
71791;BME280;59638;52.126;5.434;2022-10-26T04:33:13;101442.88;;;9.93;100.00
71791;BME280;59638;52.126;5.434;2022-10-26T04:35:39;101432.34;;;10.04;100.00
71791;BME280;59638;52.126;5.434;2022-10-26T04:38:06;101437.88;;;10.13;100.00
71791;BME280;59638;52.126;5.434;2022-10-26T04:40:33;101435.31;;;10.22;100.00
71791;BME280;59638;52.126;5.434;2022-10-26T04:43:00;101425.91;;;10.31;100.00
71791;BME280;59638;52.126;5.434;2022-10-26T04:45:26;101431.63;;;10.36;100.00
71791;BME280;59638;52.126;5.434;2022-10-26T04:48:10;101439.91;;;10.43;100.00
71791;BME280;59638;52.126;5.434;2022-10-26T04:50:37;101434.75;;;10.41;100.00
71791;BME280;59638;52.126;5.434;2022-10-26T04:53:05;101426.84;;;10.41;100.00
71791;BME280;59638;52.126;5.434;2022-10-26T04:55:32;101422.53;;;10.40;100.00
71791;BME280;59638;52.126;5.434;2022-10-26T04:57:59;101422.38;;;10.42;100.00
71791;BME280;59638;52.126;5.434;2022-10-26T05:00:27;101418.69;;;10.44;100.00
71791;BME280;59638;52.126;5.434;2022-10-26T05:03:03;101430.22;;;10.43;100.00
71791;BME280;59638;52.126;5.434;2022-10-26T05:05:31;101433.06;;;10.40;100.00
71791;BME280;59638;52.126;5.434;2022-10-26T05:07:58;101425.88;;;10.42;100.00
71791;BME280;59638;52.126;5.434;2022-10-26T05:10:25;101427.31;;;10.46;100.00
71791;BME280;59638;52.126;5.434;2022-10-26T05:12:52;101429.25;;;10.44;100.00
71791;BME280;59638;52.126;5.434;2022-10-26T05:15:19;101433.06;;;10.40;100.00
71791;BME280;59638;52.126;5.434;2022-10-26T05:17:46;101438.34;;;10.40;100.00
71791;BME280;59638;52.126;5.434;2022-10-26T05:20:13;101436.41;;;10.42;100.00
71791;BME280;59638;52.126;5.434;2022-10-26T05:22:40;101434.75;;;10.41;100.00
71791;BME280;59638;52.126;5.434;2022-10-26T05:25:07;101443.03;;;10.37;100.00
71791;BME280;59638;52.126;5.434;2022-10-26T05:27:33;101435.00;;;10.27;100.00
71791;BME280;59638;52.126;5.434;2022-10-26T05:29:59;101438.09;;;10.21;100.00
71791;BME280;59638;52.126;5.434;2022-10-26T05:32:26;101442.19;;;10.14;100.00
71791;BME280;59638;52.126;5.434;2022-10-26T05:34:52;101446.84;;;10.10;100.00
71791;BME280;59638;52.126;5.434;2022-10-26T05:37:18;101448.78;;;10.19;100.00
71791;BME280;59638;52.126;5.434;2022-10-26T05:39:45;101443.06;;;10.25;100.00
71791;BME280;59638;52.126;5.434;2022-10-26T05:42:11;101440.16;;;10.40;100.00
71791;BME280;59638;52.126;5.434;2022-10-26T05:44:37;101436.19;;;10.45;100.00
71791;BME280;59638;52.126;5.434;2022-10-26T05:47:05;101438.22;;;10.53;100.00
71791;BME280;59638;52.126;5.434;2022-10-26T05:49:31;101440.50;;;10.57;100.00
71791;BME280;59638;52.126;5.434;2022-10-26T05:51:57;101444.09;;;10.56;100.00
71791;BME280;59638;52.126;5.434;2022-10-26T05:54:24;101445.66;;;10.59;100.00
71791;BME280;59638;52.126;5.434;2022-10-26T05:56:50;101447.19;;;10.61;100.00
71791;BME280;59638;52.126;5.434;2022-10-26T05:59:17;101452.25;;;10.65;100.00
71791;BME280;59638;52.126;5.434;2022-10-26T06:04:37;101454.41;;;10.71;100.00
71791;BME280;59638;52.126;5.434;2022-10-26T06:07:10;101458.44;;;10.75;100.00
71791;BME280;59638;52.126;5.434;2022-10-26T06:09:38;101447.38;;;10.81;100.00
71791;BME280;59638;52.126;5.434;2022-10-26T06:12:06;101449.06;;;10.82;100.00
71791;BME280;59638;52.126;5.434;2022-10-26T06:14:33;101453.63;;;10.80;100.00
71791;BME280;59638;52.126;5.434;2022-10-26T06:17:29;101454.59;;;10.79;100.00
71791;BME280;59638;52.126;5.434;2022-10-26T06:20:10;101449.31;;;10.79;100.00
71791;BME280;59638;52.126;5.434;2022-10-26T06:23:08;101460.97;;;10.76;100.00
71791;BME280;59638;52.126;5.434;2022-10-26T06:30:45;101466.84;;;10.80;100.00
71791;BME280;59638;52.126;5.434;2022-10-26T06:33:12;101460.22;;;10.85;100.00
71791;BME280;59638;52.126;5.434;2022-10-26T06:38:36;101462.03;;;10.85;100.00
71791;BME280;59638;52.126;5.434;2022-10-26T06:41:04;101451.94;;;10.90;100.00
71791;BME280;59638;52.126;5.434;2022-10-26T06:43:33;101465.59;;;10.95;100.00
71791;BME280;59638;52.126;5.434;2022-10-26T06:51:48;101460.97;;;11.08;100.00
71791;BME280;59638;52.126;5.434;2022-10-26T06:54:29;101460.47;;;11.14;100.00
71791;BME280;59638;52.126;5.434;2022-10-26T06:56:57;101459.59;;;11.25;100.00
71791;BME280;59638;52.126;5.434;2022-10-26T06:59:39;101463.41;;;11.32;100.00
71791;BME280;59638;52.126;5.434;2022-10-26T07:02:08;101464.06;;;11.46;100.00
71791;BME280;59638;52.126;5.434;2022-10-26T07:04:34;101459.38;;;11.49;100.00
71791;BME280;59638;52.126;5.434;2022-10-26T07:07:01;101459.09;;;11.52;100.00
71791;BME280;59638;52.126;5.434;2022-10-26T07:09:28;101469.16;;;11.58;100.00
71791;BME280;59638;52.126;5.434;2022-10-26T07:11:54;101456.13;;;11.66;100.00
71791;BME280;59638;52.126;5.434;2022-10-26T07:14:20;101454.84;;;11.82;100.00
71791;BME280;59638;52.126;5.434;2022-10-26T07:16:47;101449.88;;;11.88;100.00
71791;BME280;59638;52.126;5.434;2022-10-26T07:19:13;101448.53;;;11.94;100.00
71791;BME280;59638;52.126;5.434;2022-10-26T07:21:39;101451.63;;;11.99;100.00
71791;BME280;59638;52.126;5.434;2022-10-26T07:24:06;101466.97;;;12.05;100.00
71791;BME280;59638;52.126;5.434;2022-10-26T07:26:32;101463.19;;;12.29;100.00
71791;BME280;59638;52.126;5.434;2022-10-26T07:28:59;101464.72;;;12.91;100.00
71791;BME280;59638;52.126;5.434;2022-10-26T07:31:25;101460.00;;;13.04;98.29
71791;BME280;59638;52.126;5.434;2022-10-26T07:33:52;101469.16;;;12.80;98.02
71791;BME280;59638;52.126;5.434;2022-10-26T07:36:19;101462.72;;;12.64;97.92
71791;BME280;59638;52.126;5.434;2022-10-26T07:38:45;101473.56;;;12.51;97.75
71791;BME280;59638;52.126;5.434;2022-10-26T07:41:12;101472.69;;;12.41;98.32
71791;BME280;59638;52.126;5.434;2022-10-26T07:43:39;101477.56;;;12.36;97.84
71791;BME280;59638;52.126;5.434;2022-10-26T07:46:05;101493.06;;;12.50;98.57
71791;BME280;59638;52.126;5.434;2022-10-26T07:48:31;101490.25;;;13.79;97.11
71791;BME280;59638;52.126;5.434;2022-10-26T07:51:00;101498.28;;;14.99;93.41
71791;BME280;59638;52.126;5.434;2022-10-26T07:53:28;101484.28;;;16.12;90.10
71791;BME280;59638;52.126;5.434;2022-10-26T07:55:56;101477.28;;;16.87;86.47
71791;BME280;59638;52.126;5.434;2022-10-26T07:58:22;101483.31;;;17.30;84.15
71791;BME280;59638;52.126;5.434;2022-10-26T08:00:52;101474.66;;;17.60;82.00
71791;BME280;59638;52.126;5.434;2022-10-26T08:03:19;101479.03;;;17.78;80.19
71791;BME280;59638;52.126;5.434;2022-10-26T08:05:46;101489.53;;;17.79;79.89
71791;BME280;59638;52.126;5.434;2022-10-26T08:08:16;101489.69;;;18.41;78.85
71791;BME280;59638;52.126;5.434;2022-10-26T08:10:44;101489.69;;;18.81;76.86
71791;BME280;59638;52.126;5.434;2022-10-26T08:13:11;101504.13;;;19.25;75.38
71791;BME280;59638;52.126;5.434;2022-10-26T08:15:38;101504.13;;;19.25;74.94
71791;BME280;59638;52.126;5.434;2022-10-26T08:18:05;101505.78;;;19.26;74.65
71791;BME280;59638;52.126;5.434;2022-10-26T08:20:31;101509.63;;;19.01;74.10
71791;BME280;59638;52.126;5.434;2022-10-26T08:22:58;101498.66;;;18.09;76.42
71791;BME280;59638;52.126;5.434;2022-10-26T08:25:26;101500.38;;;18.41;76.33
71791;BME280;59638;52.126;5.434;2022-10-26T08:27:53;101509.25;;;19.12;75.59
71791;BME280;59638;52.126;5.434;2022-10-26T08:30:19;101506.47;;;20.04;72.72
71791;BME280;59638;52.126;5.434;2022-10-26T08:32:46;101521.06;;;20.90;68.78
71791;BME280;59638;52.126;5.434;2022-10-26T08:35:13;101523.81;;;20.97;68.73
71791;BME280;59638;52.126;5.434;2022-10-26T08:37:39;101513.16;;;21.03;68.48
71791;BME280;59638;52.126;5.434;2022-10-26T08:40:06;101513.72;;;20.99;68.86
71791;BME280;59638;52.126;5.434;2022-10-26T08:42:39;101512.88;;;20.98;69.31
71791;BME280;59638;52.126;5.434;2022-10-26T08:48:03;101525.16;;;20.71;68.40
71791;BME280;59638;52.126;5.434;2022-10-26T08:50:33;101540.78;;;19.48;70.10
71791;BME280;59638;52.126;5.434;2022-10-26T08:53:15;101544.44;;;17.90;76.50
71791;BME280;59638;52.126;5.434;2022-10-26T08:55:55;101543.00;;;17.12;79.11
71791;BME280;59638;52.126;5.434;2022-10-26T08:58:28;101539.22;;;16.73;80.76
71791;BME280;59638;52.126;5.434;2022-10-26T09:00:57;101547.25;;;16.47;81.03
71791;BME280;59638;52.126;5.434;2022-10-26T09:03:24;101538.63;;;16.27;83.05
71791;BME280;59638;52.126;5.434;2022-10-26T09:08:35;101528.28;;;16.24;84.19
71791;BME280;59638;52.126;5.434;2022-10-26T09:14:18;101526.41;;;16.50;83.51
71791;BME280;59638;52.126;5.434;2022-10-26T09:17:07;101523.13;;;18.85;79.42
71791;BME280;59638;52.126;5.434;2022-10-26T09:24:55;101511.97;;;20.55;70.44
71791;BME280;59638;52.126;5.434;2022-10-26T09:27:26;101507.91;;;20.95;70.61
71791;BME280;59638;52.126;5.434;2022-10-26T09:29:59;101509.66;;;21.45;67.35
71791;BME280;59638;52.126;5.434;2022-10-26T09:32:41;101510.03;;;22.55;67.22
71791;BME280;59638;52.126;5.434;2022-10-26T09:35:17;101520.81;;;21.42;66.08
71791;BME280;59638;52.126;5.434;2022-10-26T09:37:50;101521.84;;;20.69;68.71
71791;BME280;59638;52.126;5.434;2022-10-26T09:41:05;101520.94;;;21.34;66.27
71791;BME280;59638;52.126;5.434;2022-10-26T09:43:16;101540.91;;;20.59;67.94
71791;BME280;59638;52.126;5.434;2022-10-26T09:45:45;101536.06;;;20.40;67.40
71791;BME280;59638;52.126;5.434;2022-10-26T09:48:20;101541.41;;;21.35;65.74
71791;BME280;59638;52.126;5.434;2022-10-26T09:50:48;101548.19;;;21.53;64.41
71791;BME280;59638;52.126;5.434;2022-10-26T09:53:16;101553.13;;;21.13;65.31
71791;BME280;59638;52.126;5.434;2022-10-26T09:55:45;101556.88;;;20.82;66.65
71791;BME280;59638;52.126;5.434;2022-10-26T09:58:24;101566.81;;;20.00;69.03
71791;BME280;59638;52.126;5.434;2022-10-26T10:00:53;101570.66;;;20.35;69.62
71791;BME280;59638;52.126;5.434;2022-10-26T10:03:25;101568.25;;;21.35;65.60
71791;BME280;59638;52.126;5.434;2022-10-26T10:05:51;101579.75;;;21.72;64.07
71791;BME280;59638;52.126;5.434;2022-10-26T10:08:23;101571.59;;;22.36;62.88
71791;BME280;59638;52.126;5.434;2022-10-26T10:11:02;101574.81;;;22.94;60.80
71791;BME280;59638;52.126;5.434;2022-10-26T10:13:32;101580.66;;;22.98;60.12
71791;BME280;59638;52.126;5.434;2022-10-26T10:16:05;101583.59;;;23.23;60.69
71791;BME280;59638;52.126;5.434;2022-10-26T10:18:32;101583.31;;;23.85;58.93
71791;BME280;59638;52.126;5.434;2022-10-26T10:20:59;101582.06;;;24.34;58.79
71791;BME280;59638;52.126;5.434;2022-10-26T10:23:31;101580.91;;;25.27;56.65
71791;BME280;59638;52.126;5.434;2022-10-26T10:26:17;101585.13;;;25.79;55.57
71791;BME280;59638;52.126;5.434;2022-10-26T10:28:55;101590.03;;;24.81;55.73
71791;BME280;59638;52.126;5.434;2022-10-26T10:31:28;101594.00;;;24.78;56.86
71791;BME280;59638;52.126;5.434;2022-10-26T10:33:55;101597.03;;;25.40;55.44
71791;BME280;59638;52.126;5.434;2022-10-26T10:36:25;101607.44;;;25.74;55.01
71791;BME280;59638;52.126;5.434;2022-10-26T10:38:52;101600.13;;;25.05;54.38
71791;BME280;59638;52.126;5.434;2022-10-26T10:41:37;101596.81;;;25.41;56.37
71791;BME280;59638;52.126;5.434;2022-10-26T10:44:23;101606.88;;;24.76;57.33
71791;BME280;59638;52.126;5.434;2022-10-26T10:46:59;101631.31;;;24.88;57.20
71791;BME280;59638;52.126;5.434;2022-10-26T10:49:27;101633.72;;;24.51;55.77
71791;BME280;59638;52.126;5.434;2022-10-26T10:51:54;101637.91;;;23.20;60.08
71791;BME280;59638;52.126;5.434;2022-10-26T10:54:25;101643.47;;;23.73;59.40
71791;BME280;59638;52.126;5.434;2022-10-26T11:02:40;101649.50;;;22.23;65.41
71791;BME280;59638;52.126;5.434;2022-10-26T11:05:21;101655.00;;;21.72;63.30
71791;BME280;59638;52.126;5.434;2022-10-26T11:08:27;101652.56;;;21.56;65.89
71791;BME280;59638;52.126;5.434;2022-10-26T11:11:08;101680.66;;;20.27;69.26
71791;BME280;59638;52.126;5.434;2022-10-26T11:13:45;101676.06;;;19.36;72.75
71791;BME280;59638;52.126;5.434;2022-10-26T11:16:19;101687.25;;;19.00;74.04
71791;BME280;59638;52.126;5.434;2022-10-26T11:21:47;101694.00;;;18.63;75.47
71791;BME280;59638;52.126;5.434;2022-10-26T11:27:03;101687.34;;;18.18;77.43
71791;BME280;59638;52.126;5.434;2022-10-26T11:29:52;101681.50;;;17.99;78.50
71791;BME280;59638;52.126;5.434;2022-10-26T11:32:35;101694.66;;;17.84;79.09
71791;BME280;59638;52.126;5.434;2022-10-26T11:35:13;101696.94;;;17.71;79.42
71791;BME280;59638;52.126;5.434;2022-10-26T11:37:47;101686.75;;;17.66;80.31
71791;BME280;59638;52.126;5.434;2022-10-26T11:42:56;101705.63;;;17.64;80.21
71791;BME280;59638;52.126;5.434;2022-10-26T11:45:30;101713.78;;;17.63;80.99
71791;BME280;59638;52.126;5.434;2022-10-26T11:48:05;101712.63;;;17.65;80.78
71791;BME280;59638;52.126;5.434;2022-10-26T11:50:42;101709.34;;;17.80;80.73
71791;BME280;59638;52.126;5.434;2022-10-26T11:53:39;101700.69;;;18.02;80.32
71791;BME280;59638;52.126;5.434;2022-10-26T11:56:11;101688.63;;;18.96;78.93
71791;BME280;59638;52.126;5.434;2022-10-26T11:58:39;101687.44;;;19.38;75.36
71791;BME280;59638;52.126;5.434;2022-10-26T12:01:11;101697.06;;;19.55;74.73
71791;BME280;59638;52.126;5.434;2022-10-26T12:03:48;101697.56;;;21.68;68.34
71791;BME280;59638;52.126;5.434;2022-10-26T12:06:21;101704.16;;;23.14;63.44
71791;BME280;59638;52.126;5.434;2022-10-26T12:08:56;101711.53;;;23.40;60.40
71791;BME280;59638;52.126;5.434;2022-10-26T12:11:46;101711.81;;;21.69;65.51
71791;BME280;59638;52.126;5.434;2022-10-26T12:14:18;101726.91;;;20.52;68.86
71791;BME280;59638;52.126;5.434;2022-10-26T12:16:58;101734.03;;;19.68;70.93
71791;BME280;59638;52.126;5.434;2022-10-26T12:19:34;101722.81;;;19.64;73.26
71791;BME280;59638;52.126;5.434;2022-10-26T12:22:10;101723.19;;;20.07;71.79
71791;BME280;59638;52.126;5.434;2022-10-26T12:24:43;101719.28;;;19.95;71.22
71791;BME280;59638;52.126;5.434;2022-10-26T12:35:29;101733.28;;;19.43;74.54
71791;BME280;59638;52.126;5.434;2022-10-26T12:37:57;101724.47;;;19.65;74.28
71791;BME280;59638;52.126;5.434;2022-10-26T12:42:56;101739.09;;;19.54;73.84
71791;BME280;59638;52.126;5.434;2022-10-26T12:45:23;101732.88;;;19.54;74.54
71791;BME280;59638;52.126;5.434;2022-10-26T12:50:23;101740.81;;;18.84;75.72
71791;BME280;59638;52.126;5.434;2022-10-26T12:53:03;101750.84;;;18.73;76.10
71791;BME280;59638;52.126;5.434;2022-10-26T13:09:30;101746.69;;;18.71;76.61
71791;BME280;59638;52.126;5.434;2022-10-26T13:12:00;101733.78;;;18.74;75.86
71791;BME280;59638;52.126;5.434;2022-10-26T13:14:37;101738.16;;;18.76;75.73
71791;BME280;59638;52.126;5.434;2022-10-26T13:17:23;101734.47;;;18.68;76.94
71791;BME280;59638;52.126;5.434;2022-10-26T13:19:55;101737.28;;;18.75;76.31
71791;BME280;59638;52.126;5.434;2022-10-26T13:22:22;101738.16;;;18.76;75.94
71791;BME280;59638;52.126;5.434;2022-10-26T13:24:56;101749.16;;;18.72;76.86
71791;BME280;59638;52.126;5.434;2022-10-26T13:32:52;101751.84;;;18.72;77.86
71791;BME280;59638;52.126;5.434;2022-10-26T13:35:22;101740.97;;;18.90;76.87
71791;BME280;59638;52.126;5.434;2022-10-26T13:37:52;101750.63;;;18.99;77.33
71791;BME280;59638;52.126;5.434;2022-10-26T13:40:24;101751.13;;;19.03;76.37
71791;BME280;59638;52.126;5.434;2022-10-26T13:42:54;101746.47;;;18.97;76.84
71791;BME280;59638;52.126;5.434;2022-10-26T13:45:38;101760.84;;;18.96;77.44
71791;BME280;59638;52.126;5.434;2022-10-26T13:48:13;101765.53;;;18.94;77.22
71791;BME280;59638;52.126;5.434;2022-10-26T13:50:55;101764.69;;;18.93;77.53
71791;BME280;59638;52.126;5.434;2022-10-26T13:53:40;101765.03;;;18.90;78.04
71791;BME280;59638;52.126;5.434;2022-10-26T13:58:56;101756.88;;;18.76;78.37
71791;BME280;59638;52.126;5.434;2022-10-26T14:01:25;101755.19;;;18.66;78.87
71791;BME280;59638;52.126;5.434;2022-10-26T14:03:52;101754.16;;;18.59;78.70
71791;BME280;59638;52.126;5.434;2022-10-26T14:06:24;101762.38;;;18.58;79.71
71791;BME280;59638;52.126;5.434;2022-10-26T14:08:53;101755.34;;;18.57;79.47
71791;BME280;59638;52.126;5.434;2022-10-26T14:11:32;101765.22;;;18.56;80.01
71791;BME280;59638;52.126;5.434;2022-10-26T14:13:59;101770.56;;;18.56;80.43
71791;BME280;59638;52.126;5.434;2022-10-26T14:16:29;101769.72;;;18.56;80.15
71791;BME280;59638;52.126;5.434;2022-10-26T14:18:57;101774.22;;;18.55;80.39
71791;BME280;59638;52.126;5.434;2022-10-26T14:21:23;101779.56;;;18.55;80.03
71791;BME280;59638;52.126;5.434;2022-10-26T14:23:53;101792.09;;;18.55;80.09
71791;BME280;59638;52.126;5.434;2022-10-26T14:26:29;101787.28;;;18.50;80.39
71791;BME280;59638;52.126;5.434;2022-10-26T14:28:57;101795.28;;;18.50;80.52
71791;BME280;59638;52.126;5.434;2022-10-26T14:31:31;101802.66;;;18.56;80.75
71791;BME280;59638;52.126;5.434;2022-10-26T14:34:00;101804.47;;;18.64;80.07
71791;BME280;59638;52.126;5.434;2022-10-26T14:36:36;101819.38;;;18.66;80.45
71791;BME280;59638;52.126;5.434;2022-10-26T14:39:07;101817.03;;;18.63;80.50
71791;BME280;59638;52.126;5.434;2022-10-26T14:41:34;101815.34;;;18.62;80.66
71791;BME280;59638;52.126;5.434;2022-10-26T14:44:01;101830.72;;;18.60;80.57
71791;BME280;59638;52.126;5.434;2022-10-26T14:46:33;101821.50;;;18.55;80.61
71791;BME280;59638;52.126;5.434;2022-10-26T14:49:02;101826.03;;;18.54;80.04